Time;durP1;ratioP1;P1;durP2;ratioP2;P2;SDS_P1;SDS_P2;PMS_P1;PMS_P2;Temp;Humidity;BMP_temperature;BMP_pressure;BME280_temperature;BME280_humidity;BME280_pressure;Samples;Min_cycle;Max_cycle;Signal;HPM_P1;HPM_P2
2021/08/11 00:01:33;;;;;;;2.28;2.08;;;24.10;65.90;;;;;;4835155;29;93675;-14
2021/08/11 00:03:58;;;;;;;2.97;2.22;;;24.20;66.00;;;;;;4835223;29;93243;-13
2021/08/11 00:06:26;;;;;;;2.40;1.98;;;24.10;66.00;;;;;;4835258;29;93212;-13
2021/08/11 00:08:51;;;;;;;2.55;2.35;;;24.10;65.90;;;;;;4835838;29;92895;-15
2021/08/11 00:11:17;;;;;;;2.17;1.98;;;24.10;65.90;;;;;;4835307;29;92779;-13
2021/08/11 00:13:43;;;;;;;2.30;2.10;;;24.10;65.90;;;;;;4835878;29;92881;-15
2021/08/11 00:16:10;;;;;;;2.22;2.00;;;24.10;65.90;;;;;;4835974;29;92892;-12
2021/08/11 00:18:36;;;;;;;2.55;1.98;;;24.00;65.90;;;;;;4835247;29;93029;-17
2021/08/11 00:21:02;;;;;;;2.40;2.20;;;24.10;65.90;;;;;;4833772;29;94580;-15
2021/08/11 00:23:28;;;;;;;2.33;2.13;;;24.20;66.00;;;;;;4834687;29;94800;-16
2021/08/11 00:25:56;;;;;;;2.35;1.80;;;24.30;66.00;;;;;;4834768;29;92786;-17
2021/08/11 00:28:23;;;;;;;2.15;1.70;;;24.10;65.90;;;;;;4835264;29;92241;-16
2021/08/11 00:30:49;;;;;;;1.90;1.80;;;24.10;65.90;;;;;;4835081;29;94890;-14
2021/08/11 00:33:15;;;;;;;2.33;2.13;;;24.10;65.90;;;;;;4835121;29;93645;-16
2021/08/11 00:35:40;;;;;;;2.33;2.13;;;24.10;65.90;;;;;;4835676;29;93467;-14
2021/08/11 00:38:06;;;;;;;1.98;1.85;;;24.10;65.90;;;;;;4835467;29;91412;-12
2021/08/11 00:40:32;;;;;;;2.10;1.90;;;24.20;65.90;;;;;;4834884;29;93426;-17
2021/08/11 00:42:58;;;;;;;2.38;1.83;;;24.10;65.90;;;;;;4834674;29;93240;-13
2021/08/11 00:45:24;;;;;;;1.70;1.52;;;24.00;65.80;;;;;;4834520;29;94720;-13
2021/08/11 00:47:54;;;;;;;3.45;1.90;;;24.20;66.00;;;;;;4834321;29;93406;-16
2021/08/11 00:50:20;;;;;;;2.20;1.80;;;24.10;65.90;;;;;;4834102;29;93806;-13
2021/08/11 00:52:47;;;;;;;2.15;1.73;;;24.00;65.80;;;;;;4847711;29;95759;-22
2021/08/11 00:55:14;;;;;;;1.98;1.83;;;24.00;65.80;;;;;;4835655;29;93152;-12
2021/08/11 00:57:41;;;;;;;2.30;1.90;;;24.00;65.80;;;;;;4835131;29;93107;-16
2021/08/11 01:00:07;;;;;;;1.70;1.60;;;24.00;65.80;;;;;;4835175;29;92894;-17
2021/08/11 01:02:35;;;;;;;2.25;2.05;;;24.00;65.80;;;;;;4834980;29;92892;-13
2021/08/11 01:05:01;;;;;;;2.35;2.15;;;24.10;65.90;;;;;;4834109;29;92615;-13
2021/08/11 01:07:28;;;;;;;2.20;2.00;;;24.00;65.80;;;;;;4833720;29;93087;-13
2021/08/11 01:09:54;;;;;;;2.05;1.85;;;24.10;65.90;;;;;;4832689;29;94934;-12
2021/08/11 01:12:22;;;;;;;2.00;1.90;;;24.00;65.90;;;;;;4833311;29;92785;-13
2021/08/11 01:14:50;;;;;;;2.70;2.05;;;24.00;65.80;;;;;;4834781;29;92171;-17
2021/08/11 01:17:15;;;;;;;2.28;1.88;;;24.00;65.80;;;;;;4834610;29;93267;-15
2021/08/11 01:19:41;;;;;;;2.25;1.80;;;24.00;65.80;;;;;;4834157;29;92744;-17
2021/08/11 01:22:24;;;;;;;1.75;1.65;;;24.00;65.80;;;;;;4834122;29;93416;-14
2021/08/11 01:25:09;;;;;;;2.88;1.75;;;24.00;65.80;;;;;;4848026;29;92907;-13
2021/08/11 01:27:37;;;;;;;2.17;1.98;;;24.10;65.90;;;;;;4834099;29;92913;-13
2021/08/11 01:30:11;;;;;;;2.10;1.90;;;24.00;65.90;;;;;;4848404;29;94130;-17
2021/08/11 01:32:48;;;;;;;1.92;1.80;;;24.00;65.90;;;;;;4834501;29;93379;-13
2021/08/11 01:35:17;;;;;;;2.33;2.05;;;24.00;65.80;;;;;;4833046;29;93870;-12
2021/08/11 01:37:44;;;;;;;1.90;1.80;;;24.00;65.80;;;;;;4832709;29;92953;-13
2021/08/11 01:40:14;;;;;;;1.98;1.67;;;24.00;65.80;;;;;;4847507;29;96448;-13
2021/08/11 01:42:43;;;;;;;2.65;1.98;;;23.90;65.80;;;;;;4834256;29;92214;-26
2021/08/11 01:45:16;;;;;;;3.67;1.90;;;24.00;65.80;;;;;;4834760;29;93406;-16
2021/08/11 01:47:59;;;;;;;1.80;1.70;;;23.90;65.80;;;;;;4834470;29;92692;-16
2021/08/11 01:50:28;;;;;;;2.47;1.70;;;23.90;65.70;;;;;;4835110;29;94304;-12
2021/08/11 01:52:55;;;;;;;3.60;1.80;;;23.90;65.80;;;;;;4848806;29;96446;-12
2021/08/11 01:55:20;;;;;;;1.60;1.50;;;23.90;65.70;;;;;;4834567;29;92185;-12
2021/08/11 01:57:49;;;;;;;2.10;1.90;;;24.00;65.80;;;;;;4834880;29;92735;-13
2021/08/11 02:00:19;;;;;;;2.40;1.70;;;24.00;65.90;;;;;;4847697;29;95277;-12
2021/08/11 02:02:46;;;;;;;1.60;1.50;;;23.90;65.80;;;;;;4833588;29;93813;-17
2021/08/11 02:05:13;;;;;;;1.83;1.73;;;23.90;65.80;;;;;;4834222;29;93375;-14
2021/08/11 02:07:40;;;;;;;3.35;1.77;;;23.90;65.80;;;;;;4834165;29;92271;-13
2021/08/11 02:10:07;;;;;;;1.83;1.50;;;23.90;65.80;;;;;;4834692;29;92487;-15
2021/08/11 02:12:34;;;;;;;2.15;1.90;;;23.90;65.80;;;;;;4833471;29;95030;-12
2021/08/11 02:15:00;;;;;;;1.95;1.75;;;23.90;65.80;;;;;;4834703;29;92553;-15
2021/08/11 02:17:25;;;;;;;1.67;1.58;;;24.10;65.90;;;;;;4834895;29;92376;-12
2021/08/11 02:19:52;;;;;;;2.05;1.85;;;23.90;65.80;;;;;;4833846;29;93390;-1
2021/08/11 02:22:17;;;;;;;2.00;1.80;;;23.90;65.80;;;;;;4833025;29;93090;-4
2021/08/11 02:24:44;;;;;;;1.70;1.60;;;23.90;65.80;;;;;;4832882;29;94177;-7
2021/08/11 02:27:18;;;;;;;2.35;2.05;;;23.90;65.80;;;;;;4832480;29;93206;-2
2021/08/11 02:29:46;;;;;;;1.77;1.67;;;23.90;65.80;;;;;;4832012;29;92557;-6
2021/08/11 02:32:20;;;;;;;3.20;1.95;;;23.90;65.80;;;;;;4832715;29;93045;-3
2021/08/11 02:35:08;;;;;;;1.88;1.70;;;23.90;65.80;;;;;;4833666;29;92519;-3
2021/08/11 02:37:40;;;;;;;2.30;1.90;;;23.90;65.80;;;;;;4833356;29;93093;-7
2021/08/11 02:40:14;;;;;;;2.17;1.98;;;23.90;65.90;;;;;;4832690;29;92858;-9
2021/08/11 02:42:44;;;;;;;2.75;2.00;;;23.90;65.90;;;;;;4847121;29;95999;-3
2021/08/11 02:45:15;;;;;;;1.90;1.75;;;24.00;65.90;;;;;;4833283;29;92851;-2
2021/08/11 02:47:42;;;;;;;2.28;1.90;;;24.10;65.90;;;;;;4833635;29;92988;-1
2021/08/11 02:50:09;;;;;;;1.90;1.80;;;23.90;65.80;;;;;;4835004;29;94320;-8
2021/08/11 02:52:37;;;;;;;2.45;2.00;;;23.90;65.90;;;;;;4836453;29;95868;-3
2021/08/11 02:55:03;;;;;;;1.65;1.55;;;23.90;65.80;;;;;;4836562;29;92587;-1
2021/08/11 02:57:30;;;;;;;2.10;1.73;;;23.90;65.90;;;;;;4836775;29;93123;-2
2021/08/11 02:59:56;;;;;;;1.70;1.60;;;23.90;65.80;;;;;;4836344;29;93295;-1
2021/08/11 03:02:22;;;;;;;2.15;1.95;;;23.90;65.80;;;;;;4836079;29;93104;-1
2021/08/11 03:04:49;;;;;;;1.67;1.58;;;23.80;65.80;;;;;;4836500;29;92187;-2
2021/08/11 03:07:15;;;;;;;1.50;1.40;;;24.10;65.90;;;;;;4836670;29;91806;-3
2021/08/11 03:09:41;;;;;;;2.10;1.80;;;23.80;65.70;;;;;;4835586;29;93549;-3
2021/08/11 03:12:09;;;;;;;2.08;1.58;;;23.90;65.80;;;;;;4835795;29;93688;-2
2021/08/11 03:14:38;;;;;;;1.67;1.58;;;23.80;65.70;;;;;;4836039;29;93376;-2
2021/08/11 03:17:08;;;;;;;1.60;1.50;;;23.80;65.70;;;;;;4836569;29;92562;-2
2021/08/11 03:19:34;;;;;;;2.13;1.75;;;23.80;65.70;;;;;;4836864;29;92625;-1
2021/08/11 03:22:00;;;;;;;3.38;1.42;;;23.80;65.70;;;;;;4836004;29;93646;-1
2021/08/11 03:24:25;;;;;;;2.00;1.80;;;23.80;65.70;;;;;;4836400;29;93637;-4
2021/08/11 03:26:51;;;;;;;1.63;1.52;;;23.80;65.70;;;;;;4835131;29;92970;-2
2021/08/11 03:29:16;;;;;;;1.65;1.52;;;23.80;65.70;;;;;;4836008;29;93191;-9
2021/08/11 03:31:42;;;;;;;1.85;1.70;;;23.80;65.70;;;;;;4836316;29;92808;-2
2021/08/11 03:34:07;;;;;;;1.85;1.67;;;23.80;65.70;;;;;;4836462;29;93316;-10
2021/08/11 03:36:33;;;;;;;2.10;1.83;;;23.80;65.70;;;;;;4836337;29;92444;-2
2021/08/11 03:38:59;;;;;;;1.88;1.58;;;23.80;65.70;;;;;;4834866;29;95106;-2
2021/08/11 03:41:25;;;;;;;1.67;1.55;;;23.80;65.70;;;;;;4834152;29;95151;-5
2021/08/11 03:43:51;;;;;;;1.92;1.60;;;23.80;65.70;;;;;;4836194;29;93321;-5
2021/08/11 03:46:16;;;;;;;1.67;1.58;;;23.80;65.70;;;;;;4835791;29;92156;-3
2021/08/11 03:48:42;;;;;;;1.65;1.55;;;23.80;65.70;;;;;;4835488;29;93450;-3
2021/08/11 03:51:07;;;;;;;1.70;1.60;;;23.80;65.80;;;;;;4833880;29;93843;-4
2021/08/11 03:53:33;;;;;;;1.50;1.40;;;23.90;65.80;;;;;;4835774;29;92646;-6
2021/08/11 03:55:59;;;;;;;1.80;1.70;;;23.80;65.70;;;;;;4835492;29;92226;-7
2021/08/11 03:58:26;;;;;;;1.60;1.50;;;23.80;65.70;;;;;;4835399;29;92593;-7
2021/08/11 04:00:52;;;;;;;1.70;1.60;;;23.80;65.70;;;;;;4834489;29;92509;-2
2021/08/11 04:03:18;;;;;;;1.90;1.65;;;23.80;65.80;;;;;;4834437;29;94260;-2
2021/08/11 04:05:43;;;;;;;1.88;1.70;;;23.80;65.70;;;;;;4836117;29;92712;-8
2021/08/11 04:08:09;;;;;;;1.67;1.40;;;23.80;65.70;;;;;;4835772;29;92874;-2
2021/08/11 04:10:34;;;;;;;1.60;1.50;;;23.80;66.30;;;;;;4835808;29;92916;-10
2021/08/11 04:13:00;;;;;;;2.00;1.80;;;23.70;65.70;;;;;;4835676;29;93210;-2
2021/08/11 04:15:26;;;;;;;1.60;1.42;;;24.00;65.90;;;;;;4835523;29;93158;-6
2021/08/11 04:17:51;;;;;;;1.40;1.30;;;23.80;65.80;;;;;;4835250;29;93462;-5
2021/08/11 04:20:19;;;;;;;1.60;1.50;;;23.80;65.70;;;;;;4835345;29;91500;-1
2021/08/11 04:22:45;;;;;;;2.33;1.58;;;24.00;65.90;;;;;;4835814;29;92880;-5
2021/08/11 04:25:10;;;;;;;1.42;1.33;;;23.70;65.70;;;;;;4834385;29;92195;-7
2021/08/11 04:27:36;;;;;;;1.42;1.33;;;23.70;65.70;;;;;;4832750;29;96223;-2
2021/08/11 04:30:02;;;;;;;2.25;1.60;;;23.80;65.70;;;;;;4834800;29;95919;-2
2021/08/11 04:32:28;;;;;;;1.70;1.60;;;23.70;65.70;;;;;;4835636;29;93428;-5
2021/08/11 04:34:54;;;;;;;1.45;1.35;;;23.70;65.70;;;;;;4835275;29;92748;-3
2021/08/11 04:37:19;;;;;;;1.40;1.30;;;23.80;65.70;;;;;;4849002;29;96100;-2
2021/08/11 04:39:45;;;;;;;1.65;1.52;;;23.70;65.70;;;;;;4834854;29;92984;-2
2021/08/11 04:42:11;;;;;;;1.55;1.45;;;23.80;65.70;;;;;;4835775;29;92532;-5
2021/08/11 04:44:36;;;;;;;2.00;1.55;;;23.70;66.30;;;;;;4834580;29;91441;-4
2021/08/11 04:47:02;;;;;;;1.30;1.20;;;23.70;65.60;;;;;;4833687;29;93727;-2
2021/08/11 04:49:28;;;;;;;1.85;1.50;;;23.80;65.70;;;;;;4834053;29;94975;-2
2021/08/11 04:51:53;;;;;;;1.60;1.50;;;23.80;65.70;;;;;;4834380;29;93219;-4
2021/08/11 04:54:19;;;;;;;1.58;1.48;;;23.70;65.70;;;;;;4834871;29;92462;-1
2021/08/11 04:56:44;;;;;;;2.38;1.27;;;23.70;65.70;;;;;;4834520;29;93733;-2
2021/08/11 04:59:10;;;;;;;2.72;1.50;;;23.70;65.70;;;;;;4834674;29;93407;-6
2021/08/11 05:01:35;;;;;;;1.65;1.55;;;23.70;65.70;;;;;;4833015;29;93322;-8
2021/08/11 05:04:01;;;;;;;2.03;1.33;;;23.70;65.70;;;;;;4834268;29;92512;-4
2021/08/11 05:06:27;;;;;;;1.50;1.40;;;23.70;65.70;;;;;;4833664;29;95262;-4
2021/08/11 05:08:52;;;;;;;1.70;1.40;;;23.70;65.70;;;;;;4832757;29;94797;-2
2021/08/11 05:11:18;;;;;;;1.50;1.40;;;23.70;65.60;;;;;;4834300;29;92740;-1
2021/08/11 05:13:44;;;;;;;1.58;1.00;;;23.70;65.60;;;;;;4833090;29;93250;-2
2021/08/11 05:16:10;;;;;;;1.40;1.30;;;23.80;65.70;;;;;;4833939;29;93907;-2
2021/08/11 05:18:35;;;;;;;1.42;1.33;;;23.70;65.60;;;;;;4833835;29;94293;-2
2021/08/11 05:21:01;;;;;;;1.52;1.42;;;23.70;65.60;;;;;;4834084;29;93549;-11
2021/08/11 05:23:27;;;;;;;1.40;1.30;;;23.70;65.60;;;;;;4834012;29;92374;-2
2021/08/11 05:25:53;;;;;;;1.60;1.40;;;23.70;65.60;;;;;;4833805;29;93230;-4
2021/08/11 05:28:19;;;;;;;1.40;1.30;;;23.80;65.70;;;;;;4834244;29;92863;-4
2021/08/11 05:30:44;;;;;;;1.65;1.48;;;23.70;65.60;;;;;;4833263;29;92671;-5
2021/08/11 05:33:10;;;;;;;1.70;1.60;;;23.70;65.60;;;;;;4834022;29;92352;-2
2021/08/11 05:35:36;;;;;;;1.83;1.60;;;23.80;65.70;;;;;;4833783;29;93515;-2
2021/08/11 05:38:05;;;;;;;1.80;1.23;;;23.70;65.60;;;;;;4833377;29;92839;-6
2021/08/11 05:40:31;;;;;;;1.80;1.33;;;23.70;65.60;;;;;;4834040;29;93762;-2
2021/08/11 05:42:57;;;;;;;1.67;1.55;;;23.70;65.40;;;;;;4833859;29;93267;-2
2021/08/11 05:45:23;;;;;;;1.80;1.40;;;23.70;65.30;;;;;;4833982;29;92921;-1
2021/08/11 05:47:48;;;;;;;2.10;1.58;;;23.70;65.20;;;;;;4833925;29;93591;-3
2021/08/11 05:50:14;;;;;;;1.38;1.20;;;23.70;65.30;;;;;;4833923;29;92243;-4
2021/08/11 05:52:40;;;;;;;1.42;1.33;;;23.70;65.20;;;;;;4834119;29;93655;-3
2021/08/11 05:55:06;;;;;;;2.72;1.45;;;23.80;64.90;;;;;;4833858;29;93377;-3
2021/08/11 05:57:35;;;;;;;1.25;1.15;;;23.70;64.90;;;;;;4834453;29;92393;-2
2021/08/11 06:00:02;;;;;;;2.00;1.58;;;23.80;65.00;;;;;;4833972;29;92811;-4
2021/08/11 06:02:27;;;;;;;4.15;1.73;;;23.70;65.20;;;;;;4832964;29;93547;-1
2021/08/11 06:04:53;;;;;;;2.67;1.67;;;23.70;65.20;;;;;;4832366;29;93942;-2
2021/08/11 06:07:20;;;;;;;3.63;1.90;;;23.80;65.20;;;;;;4832564;29;94193;-2
2021/08/11 06:09:46;;;;;;;4.68;2.30;;;23.80;65.30;;;;;;4833272;29;92671;-2
2021/08/11 06:12:12;;;;;;;3.33;2.08;;;23.80;65.40;;;;;;4829595;29;92570;-2
2021/08/11 06:14:37;;;;;;;2.92;1.83;;;23.80;65.60;;;;;;4833571;29;93013;-1
2021/08/11 06:17:03;;;;;;;2.22;1.90;;;23.90;65.70;;;;;;4832952;29;93470;-5
2021/08/11 06:19:28;;;;;;;5.03;2.10;;;23.80;65.60;;;;;;4833834;29;93111;-2
2021/08/11 06:21:54;;;;;;;2.08;1.70;;;23.80;65.70;;;;;;4832979;29;91824;-2
2021/08/11 06:24:20;;;;;;;3.22;1.95;;;23.80;65.70;;;;;;4834184;29;93000;-1
2021/08/11 06:26:45;;;;;;;4.35;1.70;;;24.00;65.80;;;;;;4833341;28;92746;-4
2021/08/11 06:29:11;;;;;;;5.53;2.35;;;23.90;65.80;;;;;;4850414;29;93933;-5
2021/08/11 06:31:37;;;;;;;3.53;1.73;;;23.90;65.90;;;;;;4836430;29;92730;-4
2021/08/11 06:34:02;;;;;;;5.13;2.20;;;23.70;65.80;;;;;;4835516;29;93221;-4
2021/08/11 06:36:28;;;;;;;4.18;1.92;;;23.90;65.90;;;;;;4834589;29;94179;-3
2021/08/11 06:38:54;;;;;;;3.72;1.85;;;24.00;66.00;;;;;;4835765;29;93214;-7
2021/08/11 06:41:19;;;;;;;5.00;1.75;;;23.90;66.00;;;;;;4835710;29;92637;-2
2021/08/11 06:43:46;;;;;;;7.30;2.05;;;23.90;66.00;;;;;;4836332;29;93754;-1
2021/08/11 06:46:13;;;;;;;5.20;1.83;;;23.90;66.00;;;;;;4836575;29;93487;-2
2021/08/11 06:48:40;;;;;;;1.98;1.85;;;24.10;66.10;;;;;;4835732;29;93387;-2
2021/08/11 06:51:06;;;;;;;3.88;2.35;;;23.90;66.00;;;;;;4833588;29;92198;-2
2021/08/11 06:53:32;;;;;;;6.45;1.77;;;23.90;66.00;;;;;;4835660;29;94242;-3
2021/08/11 06:55:58;;;;;;;2.13;1.88;;;23.90;65.90;;;;;;4836222;29;94415;-3
2021/08/11 06:58:24;;;;;;;2.08;1.88;;;23.90;66.00;;;;;;4849693;29;92833;-11
2021/08/11 07:00:51;;;;;;;3.88;1.95;;;23.90;66.10;;;;;;4836139;29;93306;-3
2021/08/11 07:03:19;;;;;;;5.70;2.00;;;23.90;66.10;;;;;;4835907;29;94228;-6
2021/08/11 07:05:45;;;;;;;36.88;8.38;;;23.90;66.20;;;;;;4835260;29;93124;-3
2021/08/11 07:08:10;;;;;;;63.70;11.30;;;23.80;66.20;;;;;;4835975;29;92946;-8
2021/08/11 07:10:36;;;;;;;47.78;11.82;;;23.90;66.00;;;;;;4835959;29;91772;-2
2021/08/11 07:13:01;;;;;;;29.50;9.82;;;23.90;65.70;;;;;;4835234;29;93230;-10
2021/08/11 07:15:27;;;;;;;27.00;9.25;;;23.90;65.60;;;;;;4835910;29;93025;-2
2021/08/11 07:17:55;;;;;;;23.15;8.95;;;24.10;65.80;;;;;;4835687;29;93541;-2
2021/08/11 07:20:24;;;;;;;23.27;7.72;;;23.80;65.60;;;;;;4836185;29;92706;-3
2021/08/11 07:22:50;;;;;;;21.92;8.00;;;23.90;65.80;;;;;;4833118;29;94185;-2
2021/08/11 07:25:16;;;;;;;19.08;8.30;;;23.80;65.70;;;;;;4835217;29;92537;0
2021/08/11 07:27:43;;;;;;;15.30;8.70;;;23.80;65.80;;;;;;4835751;29;92563;-2
2021/08/11 07:30:09;;;;;;;23.35;9.07;;;23.80;65.80;;;;;;4849126;29;92896;0
2021/08/11 07:32:35;;;;;;;17.80;8.43;;;23.80;65.80;;;;;;4834212;29;92716;-9
2021/08/11 07:35:03;;;;;;;15.25;8.18;;;23.80;65.80;;;;;;4836181;29;92797;0
2021/08/11 07:37:29;;;;;;;20.23;8.00;;;23.80;65.80;;;;;;4848815;29;93127;-6
2021/08/11 07:39:55;;;;;;;17.67;7.95;;;23.70;65.80;;;;;;4835283;29;92961;-4
2021/08/11 07:42:21;;;;;;;19.90;10.35;;;23.80;65.80;;;;;;4834530;29;93698;0
2021/08/11 07:44:47;;;;;;;16.92;8.30;;;23.80;65.70;;;;;;4834054;29;94848;0
2021/08/11 07:47:12;;;;;;;17.63;9.35;;;23.70;65.80;;;;;;4834725;29;93106;-8
2021/08/11 07:49:38;;;;;;;18.60;8.45;;;23.70;65.70;;;;;;4834419;29;92822;0
2021/08/11 07:52:07;;;;;;;18.98;8.73;;;23.80;65.80;;;;;;4834864;29;93948;-6
2021/08/11 07:54:33;;;;;;;14.13;9.48;;;23.80;65.80;;;;;;4834661;29;93580;-2
2021/08/11 07:56:58;;;;;;;14.93;9.10;;;23.70;65.80;;;;;;4834043;29;93471;-4
2021/08/11 07:59:24;;;;;;;18.50;9.95;;;23.70;65.80;;;;;;4835525;29;92129;-4
2021/08/11 08:01:49;;;;;;;15.15;10.30;;;23.70;65.80;;;;;;4835048;29;92827;-6
2021/08/11 08:04:15;;;;;;;16.27;10.93;;;23.80;65.80;;;;;;4833284;29;93932;-8
2021/08/11 08:06:40;;;;;;;16.35;10.48;;;23.70;65.60;;;;;;4833482;29;93944;0
2021/08/11 08:09:06;;;;;;;16.80;11.65;;;23.70;65.40;;;;;;4833734;29;93235;0
2021/08/11 08:11:33;;;;;;;20.40;12.35;;;23.80;65.50;;;;;;4848143;29;94123;-6
2021/08/11 08:13:59;;;;;;;14.40;10.90;;;23.80;65.50;;;;;;4833858;29;93219;-7
2021/08/11 08:16:25;;;;;;;13.15;10.00;;;23.70;65.40;;;;;;4834207;29;93154;-4
2021/08/11 08:18:50;;;;;;;19.15;12.70;;;23.80;65.60;;;;;;4848770;29;92712;0
2021/08/11 08:21:16;;;;;;;17.15;10.70;;;23.80;65.50;;;;;;4834498;29;93245;-9
2021/08/11 08:23:41;;;;;;;21.48;11.43;;;23.80;65.50;;;;;;4835844;29;92324;0
2021/08/11 08:26:07;;;;;;;14.63;10.52;;;23.80;65.30;;;;;;4833967;29;92865;0
2021/08/11 08:28:33;;;;;;;17.98;11.65;;;23.80;65.30;;;;;;4834207;29;92793;-7
2021/08/11 08:30:58;;;;;;;15.13;11.75;;;23.90;65.30;;;;;;4833509;29;95572;-7
2021/08/11 08:33:24;;;;;;;14.15;11.60;;;23.90;65.20;;;;;;4834488;29;94003;-3
2021/08/11 08:35:50;;;;;;;15.82;12.20;;;23.90;65.10;;;;;;4834762;29;92845;-6
2021/08/11 08:38:18;;;;;;;19.83;11.90;;;24.00;65.20;;;;;;4835095;29;93217;-4
2021/08/11 08:40:46;;;;;;;17.95;12.43;;;23.90;65.30;;;;;;4848721;29;93464;-7
2021/08/11 08:43:12;;;;;;;14.45;12.15;;;24.00;65.40;;;;;;4834369;29;93029;0
2021/08/11 08:45:38;;;;;;;14.75;11.38;;;24.00;65.60;;;;;;4833505;29;92905;0
2021/08/11 08:48:05;;;;;;;15.15;11.70;;;24.00;65.50;;;;;;4833936;29;93177;0
2021/08/11 08:50:32;;;;;;;15.60;11.30;;;24.00;65.50;;;;;;4833667;29;93909;-2
2021/08/11 08:53:00;;;;;;;17.35;13.13;;;24.00;65.40;;;;;;4834241;29;93543;-1
2021/08/11 08:55:26;;;;;;;15.38;11.65;;;24.00;65.30;;;;;;4831692;29;93657;-4
2021/08/11 08:57:52;;;;;;;15.80;12.10;;;24.10;65.60;;;;;;4833339;29;92559;-2
2021/08/11 09:00:19;;;;;;;13.00;11.00;;;24.10;65.40;;;;;;4833272;29;93119;-1
2021/08/11 09:02:45;;;;;;;15.30;12.23;;;24.10;65.20;;;;;;4833056;29;93246;-4
2021/08/11 09:05:11;;;;;;;15.52;12.23;;;24.20;65.20;;;;;;4833616;29;92768;-3
2021/08/11 09:07:46;;;;;;;13.85;11.85;;;24.10;65.30;;;;;;4833891;29;92183;-3
2021/08/11 09:10:21;;;;;;;15.40;11.85;;;24.20;65.50;;;;;;4822104;23;97136;-8
2021/08/11 09:12:48;;;;;;;13.68;11.30;;;24.10;65.50;;;;;;4777936;29;92997;-8
2021/08/11 09:15:40;;;;;;;14.05;12.57;;;24.30;65.60;;;;;;4778657;29;93225;-11
2021/08/11 09:18:18;;;;;;;15.20;11.95;;;24.10;65.50;;;;;;4778595;29;93375;-6
2021/08/11 09:20:46;;;;;;;14.07;12.40;;;24.10;65.60;;;;;;4777445;29;94373;-10
2021/08/11 09:23:14;;;;;;;16.17;12.25;;;24.10;65.60;;;;;;4777381;29;93363;-10
2021/08/11 09:26:11;;;;;;;14.57;12.13;;;24.10;65.70;;;;;;4777471;29;92969;-8
2021/08/11 09:28:38;;;;;;;17.92;12.95;;;24.10;65.90;;;;;;4774636;29;93196;-6
2021/08/11 09:31:30;;;;;;;14.73;11.40;;;24.00;66.10;;;;;;4777139;29;94945;-13
2021/08/11 09:34:01;;;;;;;15.30;10.57;;;24.10;66.10;;;;;;4777647;29;92799;-10
2021/08/11 09:36:44;;;;;;;13.13;11.57;;;24.10;65.90;;;;;;4778457;29;93360;-12
2021/08/11 09:39:09;;;;;;;12.63;10.45;;;24.10;66.00;;;;;;4777735;29;91815;-8
2021/08/11 09:41:56;;;;;;;16.65;11.15;;;24.30;66.10;;;;;;4777430;29;93361;-8
2021/08/11 09:44:21;;;;;;;14.85;10.50;;;24.20;66.10;;;;;;4791515;29;94094;-9
2021/08/11 09:46:47;;;;;;;15.35;10.65;;;24.20;66.10;;;;;;4777480;29;94441;-8
2021/08/11 09:49:17;;;;;;;13.23;9.77;;;24.10;65.90;;;;;;4778593;29;93161;-6
2021/08/11 09:51:57;;;;;;;15.20;10.00;;;24.10;65.80;;;;;;4792048;29;94819;-6
2021/08/11 09:54:24;;;;;;;11.57;9.38;;;24.20;66.30;;;;;;4778280;29;92673;-9
2021/08/11 09:56:49;;;;;;;13.20;11.00;;;24.20;65.70;;;;;;4778717;29;92736;-15
2021/08/11 09:59:15;;;;;;;13.07;9.93;;;24.20;65.80;;;;;;4791966;29;92720;-17
2021/08/11 10:01:40;;;;;;;13.02;9.57;;;24.20;66.10;;;;;;4778596;29;93235;-7
2021/08/11 10:04:07;;;;;;;12.35;9.30;;;24.20;66.10;;;;;;4778761;29;92728;-6
2021/08/11 10:06:37;;;;;;;10.10;9.05;;;24.20;66.20;;;;;;4778843;29;93313;-6
2021/08/11 10:09:16;;;;;;;11.82;9.48;;;24.20;66.10;;;;;;4792445;29;93586;-6
2021/08/11 10:11:52;;;;;;;10.65;8.18;;;24.40;66.20;;;;;;4777748;29;93719;-6
2021/08/11 10:14:30;;;;;;;11.55;8.70;;;24.20;66.00;;;;;;4778465;29;93126;-6
2021/08/11 10:16:59;;;;;;;10.32;8.85;;;24.20;65.90;;;;;;4776321;29;92674;-9
2021/08/11 10:19:29;;;;;;;11.13;8.95;;;24.20;66.00;;;;;;4791852;29;92470;-10
2021/08/11 10:22:07;;;;;;;10.68;8.95;;;24.20;66.10;;;;;;4778313;29;94115;-7
2021/08/11 10:24:35;;;;;;;8.93;7.82;;;24.20;66.00;;;;;;4776606;29;94571;-7
2021/08/11 10:27:06;;;;;;;12.02;8.68;;;24.20;66.00;;;;;;4778206;29;93024;-8
2021/08/11 10:29:32;;;;;;;13.40;8.63;;;24.20;66.60;;;;;;4778525;29;92130;-9
2021/08/11 10:32:00;;;;;;;8.65;7.07;;;24.20;66.10;;;;;;4776268;29;96131;-8
2021/08/11 10:34:29;;;;;;;11.93;8.10;;;24.20;66.20;;;;;;4778019;29;92476;-8
2021/08/11 10:36:56;;;;;;;14.65;8.70;;;24.20;66.40;;;;;;4777776;29;93501;-6
2021/08/11 10:39:23;;;;;;;12.32;7.97;;;24.30;66.30;;;;;;4778237;29;92996;-15
2021/08/11 10:41:51;;;;;;;10.40;7.78;;;24.20;66.10;;;;;;4777453;29;93293;-5
2021/08/11 10:44:22;;;;;;;10.55;6.80;;;24.20;66.30;;;;;;4777816;29;92985;-4
2021/08/11 10:47:02;;;;;;;12.30;7.45;;;24.20;66.20;;;;;;4778214;29;93203;-5
2021/08/11 10:49:29;;;;;;;8.95;6.78;;;24.20;66.00;;;;;;4778491;29;93240;-5
2021/08/11 10:52:00;;;;;;;10.98;7.13;;;24.20;65.90;;;;;;4777543;29;93189;-5
2021/08/11 10:54:26;;;;;;;10.75;6.88;;;24.20;65.80;;;;;;4778103;29;92738;-5
2021/08/11 10:56:54;;;;;;;9.80;7.10;;;24.20;65.70;;;;;;4778627;29;93205;-4
2021/08/11 10:59:27;;;;;;;7.57;6.15;;;24.30;65.70;;;;;;4778540;29;92972;-4
2021/08/11 11:01:54;;;;;;;8.65;6.57;;;24.40;65.70;;;;;;4790492;29;96095;-4
2021/08/11 11:04:36;;;;;;;9.25;6.40;;;24.30;65.60;;;;;;4791378;29;97219;-10
2021/08/11 11:07:16;;;;;;;8.27;6.13;;;24.30;65.60;;;;;;4777902;29;92814;-5
2021/08/11 11:09:43;;;;;;;8.93;6.40;;;24.30;65.60;;;;;;4777752;29;93267;-3
2021/08/11 11:12:19;;;;;;;8.63;6.15;;;24.30;65.70;;;;;;4781483;29;93328;-6
2021/08/11 11:14:52;;;;;;;7.43;6.13;;;24.20;65.60;;;;;;4781452;29;93206;-3
2021/08/11 11:17:22;;;;;;;10.93;6.05;;;24.30;65.50;;;;;;4781080;29;92790;-6
2021/08/11 11:20:12;;;;;;;7.00;5.60;;;24.30;65.50;;;;;;4781286;29;92742;-6
2021/08/11 11:22:50;;;;;;;6.82;5.60;;;24.20;65.50;;;;;;4781320;29;94495;-5
2021/08/11 11:25:17;;;;;;;7.72;5.60;;;24.20;65.60;;;;;;4778926;29;94004;-6
2021/08/11 11:27:55;;;;;;;6.95;5.75;;;24.20;65.60;;;;;;4780463;29;93930;-5
2021/08/11 11:30:26;;;;;;;6.95;5.70;;;24.20;65.60;;;;;;4781079;29;92235;-3
2021/08/11 11:32:52;;;;;;;6.22;5.63;;;24.20;65.70;;;;;;4780473;29;92777;-5
2021/08/11 11:35:20;;;;;;;6.07;5.20;;;24.10;65.70;;;;;;4780738;29;92903;-3
2021/08/11 11:38:06;;;;;;;6.45;5.35;;;24.20;65.70;;;;;;4794429;29;92880;-4
2021/08/11 11:40:32;;;;;;;6.18;5.35;;;24.30;65.60;;;;;;4781013;29;92993;-5
2021/08/11 11:43:24;;;;;;;6.07;5.47;;;24.40;65.50;;;;;;4780912;29;93477;-4
2021/08/11 11:45:50;;;;;;;6.38;5.22;;;24.20;65.50;;;;;;4781170;29;93482;-8
2021/08/11 11:48:16;;;;;;;6.90;5.28;;;24.20;65.60;;;;;;4780534;29;92174;-4
2021/08/11 11:50:44;;;;;;;5.80;4.68;;;24.10;65.60;;;;;;4780536;29;92737;-15
2021/08/11 11:53:20;;;;;;;6.07;5.25;;;24.10;65.80;;;;;;4779819;29;94526;-5
2021/08/11 11:55:46;;;;;;;7.10;5.43;;;24.10;65.70;;;;;;4778432;29;95965;-7
2021/08/11 11:58:14;;;;;;;5.88;4.85;;;24.10;65.70;;;;;;4780619;29;92264;-4
2021/08/11 12:00:41;;;;;;;5.82;5.13;;;24.10;65.70;;;;;;4793947;29;93460;-12
2021/08/11 12:03:06;;;;;;;5.63;4.63;;;24.20;66.00;;;;;;4779793;29;92791;-5
2021/08/11 12:05:46;;;;;;;6.93;4.97;;;24.20;65.90;;;;;;4779876;29;93051;-12
2021/08/11 12:08:13;;;;;;;6.45;5.32;;;24.20;65.20;;;;;;4781073;29;92842;-7
2021/08/11 12:10:39;;;;;;;6.80;4.97;;;24.20;65.40;;;;;;4780661;29;92395;-6
2021/08/11 12:13:05;;;;;;;7.22;5.05;;;24.20;65.50;;;;;;4778831;29;93230;-6
2021/08/11 12:15:35;;;;;;;5.22;4.70;;;24.10;65.40;;;;;;4778994;29;92831;-6
2021/08/11 12:18:14;;;;;;;5.72;4.97;;;24.10;65.40;;;;;;4778781;29;93784;-4
2021/08/11 12:20:39;;;;;;;7.13;5.30;;;24.30;65.60;;;;;;4779396;29;93012;-8
2021/08/11 12:23:23;;;;;;;6.38;4.82;;;24.10;65.60;;;;;;4778773;29;95341;-4
2021/08/11 12:25:52;;;;;;;6.10;4.88;;;24.10;65.50;;;;;;4779894;29;93307;-7
2021/08/11 12:28:19;;;;;;;5.43;4.90;;;24.10;65.40;;;;;;4780313;29;92791;-5
2021/08/11 12:31:01;;;;;;;5.22;4.72;;;24.20;65.30;;;;;;4779949;29;93077;-3
2021/08/11 12:33:30;;;;;;;6.38;5.05;;;24.30;65.20;;;;;;4779569;29;93230;-3
2021/08/11 12:35:56;;;;;;;5.15;4.47;;;24.20;65.00;;;;;;4779780;29;92972;-3
2021/08/11 12:38:34;;;;;;;6.32;5.00;;;24.20;64.90;;;;;;4779324;29;92258;-5
2021/08/11 12:41:21;;;;;;;5.45;4.28;;;24.30;64.80;;;;;;4779730;29;92753;-3
2021/08/11 12:43:48;;;;;;;5.82;4.65;;;24.20;64.80;;;;;;4778679;29;94187;-7
2021/08/11 12:46:15;;;;;;;6.88;5.28;;;24.30;65.30;;;;;;4779872;29;93482;-12
2021/08/11 12:48:42;;;;;;;6.50;4.50;;;24.30;64.70;;;;;;4794602;29;93642;-4
2021/08/11 12:51:20;;;;;;;5.68;5.07;;;24.30;64.70;;;;;;4779884;29;93348;-3
2021/08/11 12:54:04;;;;;;;6.18;5.28;;;24.60;64.90;;;;;;4779611;29;92848;-8
2021/08/11 12:56:30;;;;;;;5.30;4.63;;;24.30;64.70;;;;;;4779302;29;93037;-3